createdAt,value
2017-12-27T00:00:55.034Z,3.80
2017-12-27T00:03:28.748Z,3.13
2017-12-27T00:06:02.094Z,6.43
2017-12-27T00:08:50.329Z,3.47
2017-12-27T00:11:23.423Z,3.60
2017-12-27T00:13:56.777Z,3.73
2017-12-27T00:16:29.701Z,3.73
2017-12-27T00:19:02.850Z,3.40
2017-12-27T00:21:35.939Z,4.17
2017-12-27T00:24:09.418Z,4.53
2017-12-27T00:26:42.869Z,5.30
2017-12-27T00:29:16.322Z,4.57
2017-12-27T00:31:43.811Z,4.47
2017-12-27T00:34:11.553Z,7.30
2017-12-27T00:36:38.978Z,3.10
2017-12-27T00:39:06.635Z,3.70
2017-12-27T00:41:33.982Z,4.20
2017-12-27T00:44:01.331Z,3.83
2017-12-27T00:46:28.742Z,3.23
2017-12-27T00:48:56.110Z,2.40
2017-12-27T00:51:23.446Z,4.10
2017-12-27T00:53:50.780Z,3.60
2017-12-27T00:56:18.121Z,5.63
2017-12-27T00:58:45.502Z,5.53
2017-12-27T01:01:13.128Z,4.83
2017-12-27T01:03:40.599Z,4.80
2017-12-27T01:06:07.935Z,5.60
2017-12-27T01:08:35.642Z,10.50
2017-12-27T01:11:03.182Z,6.90
2017-12-27T01:13:30.990Z,3.47
2017-12-27T01:15:58.703Z,3.80
2017-12-27T01:18:26.389Z,3.13
2017-12-27T01:20:53.738Z,5.43
2017-12-27T01:23:21.118Z,6.43
2017-12-27T01:25:48.694Z,4.00
2017-12-27T01:28:16.057Z,4.20
2017-12-27T01:30:43.430Z,3.27
2017-12-27T01:33:10.838Z,3.07
2017-12-27T01:35:38.137Z,3.83
2017-12-27T01:38:05.579Z,6.20
2017-12-27T01:40:32.962Z,3.70
2017-12-27T01:43:00.689Z,6.93
2017-12-27T01:45:28.425Z,4.20
2017-12-27T01:47:56.127Z,4.27
2017-12-27T01:50:23.562Z,3.40
2017-12-27T01:52:51.360Z,5.30
2017-12-27T01:55:18.662Z,4.07
2017-12-27T01:57:46.446Z,4.00
2017-12-27T02:00:13.807Z,6.70
2017-12-27T02:02:41.230Z,4.20
2017-12-27T02:05:08.566Z,4.30
2017-12-27T02:07:36.023Z,5.70
2017-12-27T02:10:03.542Z,7.13
2017-12-27T02:12:30.994Z,5.23
2017-12-27T02:15:00.619Z,4.90
2017-12-27T02:17:27.980Z,3.80
2017-12-27T02:19:55.766Z,5.60
2017-12-27T02:22:23.637Z,6.67
2017-12-27T02:24:51.250Z,4.23
2017-12-27T02:27:18.634Z,6.13
2017-12-27T02:29:46.430Z,9.93
2017-12-27T02:32:14.094Z,5.87
2017-12-27T02:34:41.486Z,6.43
2017-12-27T02:37:08.852Z,9.07
2017-12-27T02:39:56.910Z,5.50
2017-12-27T02:42:24.638Z,5.53
2017-12-27T02:44:52.393Z,4.33
2017-12-27T02:47:19.856Z,5.30
2017-12-27T02:49:47.637Z,9.03
2017-12-27T02:52:14.942Z,6.93
2017-12-27T02:54:42.354Z,11.70
2017-12-27T02:57:10.046Z,6.20
2017-12-27T02:59:37.346Z,6.30
2017-12-27T03:02:04.784Z,5.90
2017-12-27T03:04:32.494Z,5.53
2017-12-27T03:07:00.327Z,6.33
2017-12-27T03:09:28.102Z,7.67
2017-12-27T03:11:55.795Z,8.73
2017-12-27T03:14:23.527Z,7.27
2017-12-27T03:16:51.239Z,7.80
2017-12-27T03:19:18.927Z,6.40
2017-12-27T03:21:46.270Z,7.90
2017-12-27T03:24:13.597Z,8.57
2017-12-27T03:26:41.365Z,9.30
2017-12-27T03:29:09.022Z,10.10
2017-12-27T03:31:36.374Z,7.80
2017-12-27T03:34:04.041Z,6.20
2017-12-27T03:36:31.679Z,7.70
2017-12-27T03:38:59.010Z,6.90
2017-12-27T03:41:26.378Z,6.93
2017-12-27T03:43:53.794Z,6.73
2017-12-27T03:46:21.189Z,8.17
2017-12-27T03:48:48.882Z,6.57
2017-12-27T03:51:16.542Z,6.47
2017-12-27T03:53:43.914Z,6.87
2017-12-27T03:56:11.566Z,6.63
2017-12-27T03:58:39.383Z,7.20
2017-12-27T04:01:07.098Z,8.40
2017-12-27T04:03:34.814Z,8.03
2017-12-27T04:06:02.522Z,8.90
2017-12-27T04:08:30.229Z,8.43
2017-12-27T04:10:57.771Z,7.00
2017-12-27T04:13:25.125Z,8.93
2017-12-27T04:15:52.541Z,7.00
2017-12-27T04:18:19.913Z,10.07
2017-12-27T04:20:47.369Z,7.47
2017-12-27T04:23:14.930Z,7.73
2017-12-27T04:25:42.249Z,11.03
2017-12-27T04:28:09.986Z,5.93
2017-12-27T04:30:37.678Z,6.97
2017-12-27T04:33:05.029Z,6.00
2017-12-27T04:35:32.437Z,7.20
2017-12-27T04:37:59.742Z,8.80
2017-12-27T04:40:27.101Z,8.40
2017-12-27T04:42:54.465Z,7.73
2017-12-27T04:45:21.858Z,7.50
2017-12-27T04:47:49.169Z,11.60
2017-12-27T04:50:16.590Z,7.43
2017-12-27T04:52:43.895Z,7.90
2017-12-27T04:55:11.278Z,10.07
2017-12-27T04:57:38.650Z,8.63
2017-12-27T05:00:06.050Z,7.47
2017-12-27T05:02:33.442Z,12.13
2017-12-27T05:05:00.749Z,12.77
2017-12-27T05:07:28.175Z,7.87
2017-12-27T05:09:55.642Z,11.63
2017-12-27T05:12:23.069Z,9.20
2017-12-27T05:14:50.394Z,9.03
2017-12-27T05:17:17.834Z,8.20
2017-12-27T05:19:45.222Z,8.27
2017-12-27T05:22:12.597Z,10.97
2017-12-27T05:24:40.323Z,7.83
2017-12-27T05:27:08.189Z,7.00
2017-12-27T05:29:35.813Z,7.50
2017-12-27T05:32:03.655Z,8.40
2017-12-27T05:34:31.005Z,5.90
2017-12-27T05:36:58.746Z,6.33
2017-12-27T05:39:26.552Z,9.43
2017-12-27T05:41:53.938Z,9.80
2017-12-27T05:44:21.661Z,10.23
2017-12-27T05:46:49.070Z,9.20
2017-12-27T05:49:16.696Z,8.47
2017-12-27T05:51:44.046Z,8.07
2017-12-27T05:54:11.791Z,8.37
2017-12-27T05:56:39.189Z,7.40
2017-12-27T05:59:06.535Z,7.50
2017-12-27T06:01:33.881Z,6.43
2017-12-27T06:04:01.200Z,6.40
2017-12-27T06:06:28.506Z,6.17
2017-12-27T06:08:55.905Z,6.83
2017-12-27T06:11:23.204Z,7.37
2017-12-27T06:13:50.511Z,8.73
2017-12-27T06:16:17.882Z,8.63
2017-12-27T06:18:45.402Z,8.00
2017-12-27T06:21:12.874Z,9.50
2017-12-27T06:23:40.242Z,8.80
2017-12-27T06:26:07.550Z,4.40
2017-12-27T06:28:35.113Z,5.00
2017-12-27T06:31:02.816Z,8.40
2017-12-27T06:33:30.578Z,7.60
2017-12-27T06:35:57.899Z,5.10
2017-12-27T06:38:25.583Z,6.70
2017-12-27T06:40:53.241Z,6.90
2017-12-27T06:43:20.854Z,5.37
2017-12-27T06:45:48.202Z,7.97
2017-12-27T06:48:15.841Z,6.80
2017-12-27T06:50:43.547Z,5.90
2017-12-27T06:53:10.919Z,15.20
2017-12-27T06:55:38.589Z,8.10
2017-12-27T06:58:06.266Z,4.93
2017-12-27T07:00:33.589Z,6.60
2017-12-27T07:03:01.311Z,6.60
2017-12-27T07:05:28.990Z,7.00
2017-12-27T07:07:56.346Z,8.40
2017-12-27T07:10:24.037Z,8.00
2017-12-27T07:12:51.894Z,9.13
2017-12-27T07:15:19.758Z,7.77
2017-12-27T07:17:47.638Z,7.50
2017-12-27T07:20:15.342Z,8.20
2017-12-27T07:22:43.030Z,8.63
2017-12-27T07:25:10.738Z,9.63
2017-12-27T07:27:38.490Z,11.30
2017-12-27T07:30:05.794Z,9.60
2017-12-27T07:32:33.226Z,14.10
2017-12-27T07:35:00.574Z,13.03
2017-12-27T07:37:27.893Z,13.60
2017-12-27T07:39:55.739Z,12.10
2017-12-27T07:42:23.101Z,10.70
2017-12-27T07:44:51.025Z,11.83
2017-12-27T07:47:18.418Z,13.67
2017-12-27T07:49:46.221Z,12.77
2017-12-27T07:52:13.852Z,14.77
2017-12-27T07:54:41.213Z,12.47
2017-12-27T07:57:08.521Z,13.70
2017-12-27T07:59:35.849Z,12.57
2017-12-27T08:02:03.554Z,15.77
2017-12-27T08:04:31.313Z,14.47
2017-12-27T08:06:59.034Z,12.73
2017-12-27T08:09:26.887Z,12.67
2017-12-27T08:11:54.206Z,19.30
2017-12-27T08:14:21.878Z,17.67
2017-12-27T08:16:49.305Z,16.87
2017-12-27T08:19:16.614Z,13.77
2017-12-27T08:21:43.922Z,18.90
2017-12-27T08:24:11.643Z,16.57
2017-12-27T08:26:39.270Z,18.30
2017-12-27T08:29:06.601Z,17.13
2017-12-27T08:31:33.909Z,18.37
2017-12-27T08:34:01.425Z,16.70
2017-12-27T08:36:29.013Z,16.60
2017-12-27T08:38:56.682Z,15.97
2017-12-27T08:41:24.072Z,16.73
2017-12-27T08:43:51.387Z,14.47
2017-12-27T08:46:19.037Z,14.00
2017-12-27T08:48:46.417Z,17.03
2017-12-27T08:51:14.062Z,18.77
2017-12-27T08:53:41.746Z,16.70
2017-12-27T08:56:09.377Z,17.47
2017-12-27T08:58:36.813Z,16.33
2017-12-27T09:01:04.550Z,16.77
2017-12-27T09:03:32.285Z,16.10
2017-12-27T09:05:59.945Z,19.30
2017-12-27T09:08:27.284Z,16.83
2017-12-27T09:10:54.600Z,16.73
2017-12-27T09:13:22.353Z,16.67
2017-12-27T09:15:49.750Z,14.43
2017-12-27T09:18:17.089Z,15.30
2017-12-27T09:20:45.050Z,17.50
2017-12-27T09:23:12.408Z,16.60
2017-12-27T09:25:40.129Z,17.93
2017-12-27T09:28:07.859Z,15.50
2017-12-27T09:30:35.239Z,15.80
2017-12-27T09:33:02.630Z,15.37
2017-12-27T09:35:30.322Z,13.70
2017-12-27T09:37:57.710Z,14.17
2017-12-27T09:40:25.258Z,15.37
2017-12-27T09:42:52.933Z,15.87
2017-12-27T09:45:20.310Z,16.87
2017-12-27T09:47:47.663Z,21.20
2017-12-27T09:50:15.083Z,16.53
2017-12-27T09:52:42.866Z,16.47
2017-12-27T09:55:10.501Z,17.23
2017-12-27T09:57:37.854Z,12.57
2017-12-27T10:00:05.195Z,13.30
2017-12-27T10:02:32.746Z,16.17
2017-12-27T10:05:00.571Z,13.37
2017-12-27T10:07:28.190Z,17.13
2017-12-27T10:09:55.548Z,14.40
2017-12-27T10:12:22.878Z,16.73
2017-12-27T10:14:50.564Z,23.83
2017-12-27T10:17:17.905Z,15.77
2017-12-27T10:19:45.267Z,18.70
2017-12-27T10:22:12.715Z,15.27
2017-12-27T10:24:40.083Z,15.83
2017-12-27T10:27:07.422Z,15.20
2017-12-27T10:29:35.413Z,17.80
2017-12-27T10:32:03.623Z,14.53
2017-12-27T10:34:31.018Z,15.97
2017-12-27T10:36:58.721Z,17.17
2017-12-27T10:39:26.086Z,18.73
2017-12-27T10:41:53.429Z,14.23
2017-12-27T10:44:21.093Z,14.77
2017-12-27T10:46:48.901Z,18.33
2017-12-27T10:49:16.330Z,14.60
2017-12-27T10:51:43.999Z,15.30
2017-12-27T10:54:11.762Z,17.47
2017-12-27T10:56:39.077Z,18.47
2017-12-27T10:59:06.450Z,17.73
2017-12-27T11:01:33.795Z,14.07
2017-12-27T11:04:01.483Z,15.90
2017-12-27T11:06:29.099Z,16.10
2017-12-27T11:08:56.448Z,16.07
2017-12-27T11:11:24.154Z,15.20
2017-12-27T11:13:51.486Z,18.50
2017-12-27T11:16:20.026Z,17.10
2017-12-27T11:18:47.414Z,14.37
2017-12-27T11:21:14.743Z,16.70
2017-12-27T11:23:42.120Z,14.93
2017-12-27T11:26:09.526Z,16.00
2017-12-27T11:28:36.954Z,14.20
2017-12-27T11:31:04.655Z,16.73
2017-12-27T11:33:31.949Z,13.07
2017-12-27T11:35:59.274Z,12.33
2017-12-27T11:38:27.006Z,18.33
2017-12-27T11:40:54.625Z,13.53
2017-12-27T11:43:22.301Z,13.73
2017-12-27T11:45:49.659Z,13.13
2017-12-27T11:48:17.315Z,14.40
2017-12-27T11:50:44.959Z,10.90
2017-12-27T11:53:12.314Z,13.73
2017-12-27T11:55:39.679Z,11.70
2017-12-27T11:58:06.979Z,10.60
2017-12-27T12:00:34.408Z,11.83
2017-12-27T12:03:01.947Z,11.90
2017-12-27T12:05:29.332Z,13.00
2017-12-27T12:07:56.666Z,9.73
2017-12-27T12:10:24.395Z,15.83
2017-12-27T12:12:51.838Z,12.23
2017-12-27T12:15:19.542Z,10.03
2017-12-27T12:17:46.919Z,11.30
2017-12-27T12:20:14.594Z,13.40
2017-12-27T12:22:42.221Z,11.67
2017-12-27T12:25:09.895Z,9.63
2017-12-27T12:27:37.567Z,10.10
2017-12-27T12:30:05.290Z,10.07
2017-12-27T12:32:32.739Z,12.83
2017-12-27T12:35:00.465Z,11.17
2017-12-27T12:37:27.810Z,9.03
2017-12-27T12:39:55.317Z,8.30
2017-12-27T12:42:23.057Z,13.37
2017-12-27T12:44:51.313Z,13.47
2017-12-27T12:47:18.953Z,13.43
2017-12-27T12:49:47.805Z,8.70
2017-12-27T12:52:15.281Z,10.60
2017-12-27T12:54:42.695Z,11.47
2017-12-27T12:57:10.094Z,8.03
2017-12-27T12:59:37.446Z,16.30
2017-12-27T13:02:04.794Z,9.50
2017-12-27T13:04:32.637Z,11.37
2017-12-27T13:06:59.951Z,10.93
2017-12-27T13:09:27.626Z,10.03
2017-12-27T13:11:54.962Z,10.97
2017-12-27T13:14:22.682Z,11.13
2017-12-27T13:16:50.234Z,15.63
2017-12-27T13:19:17.921Z,12.47
2017-12-27T13:21:45.298Z,13.00
2017-12-27T13:24:12.646Z,14.67
2017-12-27T13:26:40.304Z,14.53
2017-12-27T13:29:07.666Z,11.70
2017-12-27T13:31:35.349Z,14.47
2017-12-27T13:34:03.059Z,12.30
2017-12-27T13:36:30.490Z,12.17
2017-12-27T13:38:57.837Z,13.20
2017-12-27T13:41:25.165Z,15.30
2017-12-27T13:43:52.466Z,14.13
2017-12-27T13:46:20.196Z,14.27
2017-12-27T13:48:47.830Z,14.67
2017-12-27T13:51:15.708Z,17.13
2017-12-27T13:53:43.427Z,16.73
2017-12-27T13:56:10.905Z,16.50
2017-12-27T13:58:41.998Z,14.30
2017-12-27T14:01:10.253Z,16.87
2017-12-27T14:03:38.814Z,17.90
2017-12-27T14:06:06.277Z,20.83
2017-12-27T14:08:34.314Z,19.20
2017-12-27T14:11:02.064Z,17.87
2017-12-27T14:13:30.047Z,20.20
2017-12-27T14:15:57.618Z,23.20
2017-12-27T14:18:25.218Z,16.30
2017-12-27T14:20:53.743Z,17.93
2017-12-27T14:23:21.214Z,22.33
2017-12-27T14:25:48.602Z,18.90
2017-12-27T14:28:16.290Z,20.27
2017-12-27T14:30:43.598Z,19.40
2017-12-27T14:33:10.920Z,20.90
2017-12-27T14:35:38.772Z,19.97
2017-12-27T14:38:06.290Z,22.20
2017-12-27T14:40:43.897Z,19.80
2017-12-27T14:43:11.534Z,22.00
2017-12-27T14:45:39.057Z,22.63
2017-12-27T14:48:06.789Z,23.20
2017-12-27T14:50:34.618Z,19.13
2017-12-27T14:53:02.402Z,22.17
2017-12-27T14:55:30.018Z,18.67
2017-12-27T14:57:57.413Z,19.77
2017-12-27T15:00:24.977Z,21.17
2017-12-27T15:02:52.673Z,20.83
2017-12-27T15:05:19.997Z,19.10
2017-12-27T15:07:47.830Z,19.20
2017-12-27T15:10:15.690Z,21.33
2017-12-27T15:12:45.253Z,19.97
2017-12-27T15:15:13.358Z,21.70
2017-12-27T15:17:41.393Z,22.13
2017-12-27T15:20:08.794Z,20.77
2017-12-27T15:22:36.274Z,21.37
2017-12-27T15:25:03.625Z,21.57
2017-12-27T15:27:30.942Z,22.60
2017-12-27T15:29:58.303Z,21.27
2017-12-27T15:32:25.815Z,21.53
2017-12-27T15:34:53.330Z,19.17
2017-12-27T15:37:31.109Z,22.27
2017-12-27T15:39:58.414Z,23.00
2017-12-27T15:42:25.989Z,22.90
2017-12-27T15:44:53.649Z,24.00
2017-12-27T15:47:21.278Z,25.43
2017-12-27T15:49:48.622Z,25.50
2017-12-27T15:52:16.074Z,23.47
2017-12-27T15:54:43.457Z,25.97
2017-12-27T15:57:10.841Z,28.43
2017-12-27T15:59:38.173Z,25.23
2017-12-27T16:02:05.501Z,25.90
2017-12-27T16:04:32.938Z,28.53
2017-12-27T16:07:00.647Z,26.00
2017-12-27T16:09:28.362Z,31.40
2017-12-27T16:11:55.863Z,23.33
2017-12-27T16:14:23.178Z,28.17
2017-12-27T16:16:50.748Z,28.67
2017-12-27T16:19:18.130Z,31.43
2017-12-27T16:21:45.496Z,26.43
2017-12-27T16:24:13.292Z,27.70
2017-12-27T16:26:40.609Z,30.40
2017-12-27T16:29:07.960Z,34.50
2017-12-27T16:31:35.338Z,34.00
2017-12-27T16:34:03.362Z,29.80
2017-12-27T16:36:31.174Z,31.40
2017-12-27T16:38:58.798Z,30.23
2017-12-27T16:41:26.205Z,26.13
2017-12-27T16:43:53.610Z,27.73
2017-12-27T16:46:21.695Z,27.87
2017-12-27T16:48:49.169Z,26.70
2017-12-27T16:51:17.046Z,29.30
2017-12-27T16:53:44.548Z,29.60
2017-12-27T16:56:12.149Z,25.87
2017-12-27T16:58:39.990Z,29.40
2017-12-27T17:01:07.354Z,28.80
2017-12-27T17:03:34.745Z,29.30
2017-12-27T17:06:02.054Z,31.20
2017-12-27T17:08:29.568Z,31.63
2017-12-27T17:10:58.735Z,29.70
2017-12-27T17:13:26.343Z,32.10
2017-12-27T17:15:53.797Z,31.43
2017-12-27T17:18:21.249Z,34.23
2017-12-27T17:20:48.759Z,29.33
2017-12-27T17:23:16.110Z,33.13
2017-12-27T17:25:43.808Z,33.60
2017-12-27T17:28:11.561Z,32.57
2017-12-27T17:30:39.047Z,31.43
2017-12-27T17:33:07.210Z,41.00
2017-12-27T17:35:35.018Z,41.10
2017-12-27T17:38:02.681Z,32.37
2017-12-27T17:40:30.053Z,40.07
2017-12-27T17:42:57.846Z,39.20
2017-12-27T17:45:25.166Z,37.53
2017-12-27T17:47:53.061Z,36.00
2017-12-27T17:50:20.733Z,38.57
2017-12-27T17:52:48.193Z,36.27
2017-12-27T17:55:15.526Z,35.17
2017-12-27T17:57:43.221Z,34.23
2017-12-27T18:00:10.989Z,34.93
2017-12-27T18:02:38.710Z,37.90
2017-12-27T18:05:06.498Z,32.23
2017-12-27T18:07:33.862Z,34.90
2017-12-27T18:10:01.193Z,36.20
2017-12-27T18:12:28.881Z,36.77
2017-12-27T18:14:56.227Z,40.53
2017-12-27T18:17:23.612Z,38.13
2017-12-27T18:19:51.276Z,39.53
2017-12-27T18:22:18.675Z,36.30
2017-12-27T18:24:46.351Z,40.27
2017-12-27T18:27:14.247Z,38.90
2017-12-27T18:29:41.650Z,40.43
2017-12-27T18:32:09.413Z,40.47
2017-12-27T18:34:36.797Z,37.67
2017-12-27T18:37:04.758Z,37.87
2017-12-27T18:39:32.513Z,40.90
2017-12-27T18:41:59.954Z,48.70
2017-12-27T18:44:27.370Z,43.80
2017-12-27T18:46:54.730Z,34.50
2017-12-27T18:49:22.579Z,34.23
2017-12-27T18:51:49.902Z,38.80
2017-12-27T18:54:17.696Z,41.73
2017-12-27T18:56:45.942Z,40.40
2017-12-27T18:59:13.729Z,41.03
2017-12-27T19:01:41.344Z,39.23
2017-12-27T19:04:08.743Z,37.90
2017-12-27T19:06:36.582Z,36.90
2017-12-27T19:09:04.238Z,33.20
2017-12-27T19:11:32.502Z,34.43
2017-12-27T19:14:00.166Z,38.63
2017-12-27T19:16:27.825Z,38.10
2017-12-27T19:18:55.672Z,32.63
2017-12-27T19:21:23.562Z,33.67
2017-12-27T19:23:51.227Z,38.53
2017-12-27T19:26:19.164Z,33.90
2017-12-27T19:28:46.680Z,35.80
2017-12-27T19:31:14.330Z,37.53
2017-12-27T19:33:42.006Z,32.67
2017-12-27T19:36:09.659Z,40.43
2017-12-27T19:38:37.083Z,36.30
2017-12-27T19:41:04.806Z,39.30
2017-12-27T19:43:32.203Z,36.17
2017-12-27T19:45:59.639Z,38.20
2017-12-27T19:48:27.055Z,36.97
2017-12-27T19:50:54.846Z,44.83
2017-12-27T19:53:22.797Z,37.53
2017-12-27T19:55:50.126Z,36.00
2017-12-27T19:58:18.156Z,40.27
2017-12-27T20:00:45.613Z,41.67
2017-12-27T20:03:13.321Z,40.37
2017-12-27T20:05:41.087Z,42.00
2017-12-27T20:08:08.518Z,35.90
2017-12-27T20:10:36.524Z,41.60
2017-12-27T20:13:04.045Z,37.40
2017-12-27T20:15:31.426Z,39.10
2017-12-27T20:18:01.919Z,47.33
2017-12-27T20:20:29.505Z,45.13
2017-12-27T20:22:56.988Z,37.50
2017-12-27T20:25:24.521Z,40.53
2017-12-27T20:27:52.453Z,38.13
2017-12-27T20:30:20.158Z,42.40
2017-12-27T20:32:47.820Z,46.77
2017-12-27T20:35:15.626Z,42.73
2017-12-27T20:37:43.106Z,40.00
2017-12-27T20:40:10.731Z,45.40
2017-12-27T20:42:38.233Z,41.70
2017-12-27T20:45:05.610Z,47.37
2017-12-27T20:47:33.009Z,42.30
2017-12-27T20:50:00.866Z,44.03
2017-12-27T20:52:28.242Z,48.20
2017-12-27T20:54:55.965Z,40.83
2017-12-27T20:57:23.598Z,38.50
2017-12-27T20:59:51.038Z,41.53
2017-12-27T21:02:18.365Z,48.77
2017-12-27T21:04:46.087Z,41.33
2017-12-27T21:07:13.815Z,44.20
2017-12-27T21:09:41.178Z,49.80
2017-12-27T21:12:08.526Z,51.30
2017-12-27T21:14:36.106Z,45.60
2017-12-27T21:17:03.897Z,44.53
2017-12-27T21:19:31.529Z,50.03
2017-12-27T21:21:58.937Z,45.97
2017-12-27T21:24:26.422Z,42.17
2017-12-27T21:26:53.849Z,47.40
2017-12-27T21:29:21.198Z,47.90
2017-12-27T21:31:48.514Z,47.47
2017-12-27T21:34:16.213Z,48.23
2017-12-27T21:36:43.538Z,49.93
2017-12-27T21:39:11.380Z,46.23
2017-12-27T21:41:38.719Z,52.77
2017-12-27T21:44:06.046Z,45.20
2017-12-27T21:46:33.694Z,47.50
2017-12-27T21:49:06.945Z,50.93
2017-12-27T21:51:34.319Z,45.77
2017-12-27T21:54:01.646Z,45.20
2017-12-27T21:56:29.030Z,50.33
2017-12-27T21:59:02.529Z,41.83
2017-12-27T22:01:35.635Z,46.37
2017-12-27T22:04:03.638Z,49.20
2017-12-27T22:06:31.555Z,44.27
2017-12-27T22:08:59.434Z,46.50
2017-12-27T22:11:26.873Z,47.77
2017-12-27T22:13:56.175Z,46.13
2017-12-27T22:16:23.639Z,48.90
2017-12-27T22:18:50.961Z,45.80
2017-12-27T22:21:18.402Z,45.83
2017-12-27T22:23:46.355Z,46.80
2017-12-27T22:26:14.115Z,48.60
2017-12-27T22:28:41.932Z,48.30
2017-12-27T22:31:09.715Z,46.00
2017-12-27T22:33:37.081Z,47.20
2017-12-27T22:36:04.667Z,45.43
2017-12-27T22:38:32.284Z,44.07
2017-12-27T22:41:00.126Z,45.27
2017-12-27T22:43:28.193Z,51.73
2017-12-27T22:45:55.888Z,47.47
2017-12-27T22:48:23.659Z,44.77
2017-12-27T22:50:51.221Z,44.23
2017-12-27T22:53:18.979Z,44.33
2017-12-27T22:55:46.493Z,53.90
2017-12-27T22:58:14.031Z,40.43
2017-12-27T23:00:41.980Z,45.13
2017-12-27T23:03:09.846Z,45.50
2017-12-27T23:05:37.858Z,43.27
2017-12-27T23:08:06.297Z,43.87
2017-12-27T23:10:34.382Z,39.20
2017-12-27T23:13:02.735Z,38.83
2017-12-27T23:15:31.218Z,41.40
2017-12-27T23:17:59.247Z,39.60
2017-12-27T23:20:26.764Z,39.17
2017-12-27T23:22:54.302Z,42.07
2017-12-27T23:25:21.627Z,41.30
2017-12-27T23:27:48.972Z,43.43
2017-12-27T23:30:16.385Z,42.10
2017-12-27T23:32:44.003Z,38.57
2017-12-27T23:35:11.386Z,38.50
2017-12-27T23:37:38.740Z,40.97
2017-12-27T23:40:06.193Z,38.70
2017-12-27T23:42:33.613Z,41.43
2017-12-27T23:45:01.050Z,41.37
2017-12-27T23:47:28.475Z,38.50
2017-12-27T23:49:55.913Z,36.47
2017-12-27T23:52:23.485Z,36.10
2017-12-27T23:54:50.897Z,35.17
2017-12-27T23:57:18.324Z,37.30
2017-12-27T23:59:45.721Z,35.80
